No1 Tokuyama — JK5318 — position and weather

sailwx.info

Track history (hours):
 
Tides and Currents Weather Stations Pressure Air Temp Water Temp Dewpoint Dewpoint Depression Visibility Wind Speed Wind Dir Waves Ship Positions

No1 Tokuyama

Last reported at 2017-Sep-20 05:43 UTC. Time now 2017-Sep-22 10:18 UTC.
Position N 34°41' E 134°47'.

Length 110 m; draft 6 m.

Type: Cargo ship. MMSI: 431400487.

Date/timePositionNaut miles runAvg speedWind from/ knotsBaromVisibWave heightAir tempDewpointWater temp
2017-Sep-20 05:43N 34°41' E 134°47'411.1
2017-Sep-20 05:22N 34°39' E 134°51'3 9.4
2017-Sep-20 05:00N 34°37' E 134°54'510.1
2017-Sep-20 04:29N 34°37' E 135°01'4 8.4
2017-Sep-20 04:00N 34°36' E 135°05'611.8
2017-Sep-20 03:30N 34°36' E 135°12'611.9
2017-Sep-20 03:00N 34°37' E 135°20'611.2
2017-Sep-20 02:30N 34°39' E 135°26'1 1.1
2017-Sep-20 01:59N 34°39' E 135°27'0 0.0
2017-Sep-20 01:24N 34°39' E 135°27'0 0.0
2017-Sep-20 01:01N 34°39' E 135°27'0 0.0
2017-Sep-20 00:25N 34°39' E 135°27'0 0.0
2017-Sep-20 00:00N 34°39' E 135°27'0 0.0
2017-Sep-19 23:31N 34°39' E 135°27'0 0.0
2017-Sep-19 23:00N 34°39' E 135°27'0 0.0
2017-Sep-19 22:30N 34°39' E 135°27'0 0.0
2017-Sep-19 22:01N 34°39' E 135°27'0 0.0
2017-Sep-19 21:31N 34°39' E 135°27'0 0.0
2017-Sep-19 21:01N 34°39' E 135°27'0 0.0
2017-Sep-19 20:30N 34°39' E 135°27'0 0.0
2017-Sep-19 20:01N 34°39' E 135°27'0 0.0
2017-Sep-19 19:31N 34°39' E 135°27'0 0.0
2017-Sep-19 19:01N 34°39' E 135°27'0 0.0
2017-Sep-19 18:30N 34°39' E 135°27'0 0.0
2017-Sep-19 18:01N 34°39' E 135°27'0 0.0
2017-Sep-19 17:30N 34°39' E 135°27'0 0.0
2017-Sep-19 17:00N 34°39' E 135°27'0 0.0
2017-Sep-19 16:30N 34°39' E 135°27'0 0.0
2017-Sep-19 16:00N 34°39' E 135°27'0 0.0
2017-Sep-19 15:24N 34°39' E 135°27'0 0.0
2017-Sep-19 15:00N 34°39' E 135°27'0 0.0
2017-Sep-19 14:30N 34°39' E 135°27'0 0.0
2017-Sep-19 13:54N 34°39' E 135°27'0 0.0
2017-Sep-19 13:30N 34°39' E 135°27'0 0.0
2017-Sep-19 13:01N 34°39' E 135°27'0 0.0
2017-Sep-19 12:31N 34°39' E 135°27'0 0.0
2017-Sep-19 12:01N 34°39' E 135°27'0 0.0
2017-Sep-19 11:31N 34°39' E 135°27'0 0.0
2017-Sep-19 10:55N 34°39' E 135°27'0 0.0
2017-Sep-19 10:31N 34°39' E 135°27'0 0.0
2017-Sep-19 09:31N 34°39' E 135°27'0 0.0
2017-Sep-19 09:00N 34°39' E 135°27'0 0.0
2017-Sep-19 08:30N 34°39' E 135°27'0 0.0
2017-Sep-19 07:54N 34°39' E 135°27'0 0.0
2017-Sep-19 07:25N 34°39' E 135°27'0 0.0
2017-Sep-19 07:00N 34°39' E 135°27'0 0.0
2017-Sep-19 06:31N 34°39' E 135°27'0 0.0
2017-Sep-19 06:00N 34°39' E 135°27'0 0.0
2017-Sep-19 05:30N 34°39' E 135°27'2 3.5
2017-Sep-19 05:00N 34°39' E 135°24'4 9.1
2017-Sep-19 04:30N 34°37' E 135°19'1 1.6
2017-Sep-19 04:00N 34°38' E 135°19'0 0.0
2017-Sep-19 03:24N 34°38' E 135°19'0 0.1
2017-Sep-19 03:00N 34°38' E 135°19'0 0.0
2017-Sep-19 02:30N 34°38' E 135°19'0 0.0
2017-Sep-19 01:54N 34°38' E 135°19'0 0.0
2017-Sep-19 01:30N 34°38' E 135°19'0 0.0
2017-Sep-19 01:00N 34°38' E 135°19'0 0.0
2017-Sep-19 00:12N 34°38' E 135°19'0 0.0
2017-Sep-19 00:00N 34°38' E 135°19'3 5.4
2017-Sep-18 23:30N 34°36' E 135°17'611.3
2017-Sep-18 23:00N 34°35' E 135°10'611.8
2017-Sep-18 22:30N 34°36' E 135°03'4 8.5
2017-Sep-18 22:00N 34°37' E 134°58'610.9
2017-Sep-18 21:26N 34°34' E 134°52'  
2017-Sep-16 06:05N 34°33' E 134°46'415.2
2017-Sep-16 05:49N 34°35' E 134°51'515.2
2017-Sep-16 05:31N 34°37' E 134°56'612.7
2017-Sep-16 05:01N 34°36' E 135°04'713.3
2017-Sep-16 04:30N 34°36' E 135°12'713.8
2017-Sep-16 04:00N 34°37' E 135°20'611.2
2017-Sep-16 03:30N 34°39' E 135°26'0 0.3
2017-Sep-16 03:00N 34°39' E 135°27'0 0.0
2017-Sep-16 02:19N 34°39' E 135°27'0 0.0
2017-Sep-16 01:49N 34°39' E 135°27'0 0.0
2017-Sep-16 01:25N 34°39' E 135°27'0 0.0
2017-Sep-16 00:55N 34°39' E 135°27'0 0.0
2017-Sep-16 00:25N 34°39' E 135°27'0 0.0
2017-Sep-15 23:55N 34°39' E 135°27'0 0.0
2017-Sep-15 23:25N 34°39' E 135°27'0 0.0
2017-Sep-15 22:55N 34°39' E 135°27'0 0.0
2017-Sep-15 22:28N 34°39' E 135°27'1 2.4
2017-Sep-15 22:00N 34°39' E 135°25'4 7.1
2017-Sep-15 21:30N 34°37' E 135°22'0 0.1
2017-Sep-15 20:56N 34°37' E 135°22'0 0.0
2017-Sep-15 20:26N 34°37' E 135°22'0 0.0
2017-Sep-15 19:56N 34°37' E 135°22'0 0.0
2017-Sep-15 19:26N 34°37' E 135°22'0 0.0
2017-Sep-15 18:56N 34°37' E 135°22'0 0.0
2017-Sep-15 18:26N 34°37' E 135°22'0 0.0
2017-Sep-15 17:56N 34°37' E 135°22'0 0.0
2017-Sep-15 17:20N 34°37' E 135°22'0 0.0
2017-Sep-15 16:56N 34°37' E 135°22'0 0.0
2017-Sep-15 16:20N 34°37' E 135°22'0 0.0
2017-Sep-15 15:56N 34°37' E 135°22'0 0.8
2017-Sep-15 15:31N 34°36' E 135°21'611.3
2017-Sep-15 15:01N 34°35' E 135°15'612.8
2017-Sep-15 14:31N 34°35' E 135°07'714.1
2017-Sep-15 14:00N 34°37' E 134°59'  
2017-Sep-12 04:22N 34°41' E 134°46'713.2
2017-Sep-12 03:50N 34°37' E 134°54'514.8
2017-Sep-12 03:29N 34°38' E 135°00'613.3
2017-Sep-12 03:00N 34°36' E 135°08'612.3
2017-Sep-12 02:30N 34°36' E 135°15'612.0
2017-Sep-12 02:00N 34°38' E 135°22'4 7.5
2017-Sep-12 01:30N 34°39' E 135°27'0 0.2
2017-Sep-12 01:00N 34°39' E 135°27'0 0.0
2017-Sep-12 00:22N 34°39' E 135°27'0 0.0
2017-Sep-11 23:58N 34°39' E 135°27'0 0.0
2017-Sep-11 23:28N 34°39' E 135°27'0 0.0
2017-Sep-11 22:58N 34°39' E 135°27'0 0.0
2017-Sep-11 22:28N 34°39' E 135°27'0 0.0
2017-Sep-11 21:58N 34°39' E 135°27'0 0.0
2017-Sep-11 21:28N 34°39' E 135°27'0 0.0
2017-Sep-11 20:52N 34°39' E 135°27'0 0.0
2017-Sep-11 20:28N 34°39' E 135°27'0 0.0
2017-Sep-11 19:58N 34°39' E 135°27'0 0.0
2017-Sep-11 19:28N 34°39' E 135°27'0 0.0
2017-Sep-11 18:58N 34°39' E 135°27'0 0.0
2017-Sep-11 18:28N 34°39' E 135°27'0 0.0
2017-Sep-11 17:40N 34°39' E 135°27'0 0.0
2017-Sep-11 17:28N 34°39' E 135°27'0 0.0
2017-Sep-11 16:46N 34°39' E 135°27'0 0.0
2017-Sep-11 16:22N 34°39' E 135°27'0 0.0
2017-Sep-11 15:58N 34°39' E 135°27'0 0.0
2017-Sep-11 15:28N 34°39' E 135°27'0 0.0
2017-Sep-11 14:58N 34°39' E 135°27'0 0.0
2017-Sep-11 14:28N 34°39' E 135°27'0 0.0
2017-Sep-11 13:58N 34°39' E 135°27'0 0.0
2017-Sep-11 13:22N 34°39' E 135°27'0 0.0
2017-Sep-11 12:58N 34°39' E 135°27'0 0.0
2017-Sep-11 12:28N 34°39' E 135°27'0 0.0
2017-Sep-11 11:58N 34°39' E 135°27'0 0.0
2017-Sep-11 11:16N 34°39' E 135°27'0 0.0
2017-Sep-11 11:00N 34°39' E 135°27'1 2.2
2017-Sep-11 10:30N 34°39' E 135°25'611.2
2017-Sep-11 10:00N 34°36' E 135°19'612.3
2017-Sep-11 09:30N 34°35' E 135°12'713.6
2017-Sep-11 09:00N 34°35' E 135°04'813.8
2017-Sep-11 08:28N 34°36' E 134°55'  
Track history (hours):
 
Tides and Currents Weather Stations Pressure Air Temp Water Temp Dewpoint Dewpoint Depression Visibility Wind Speed Wind Dir Waves Ship Positions

No1 Tokuyama

Last reported at 2017-Sep-20 05:43 UTC. Time now 2017-Sep-22 10:18 UTC.
Position N 34°41' E 134°47'.

Length 110 m; draft 6 m.

Type: Cargo ship. MMSI: 431400487.

Date/timePositionNaut miles runAvg speedWind from/ knotsBaromVisibWave heightAir tempDewpointWater temp
2017-Sep-20 05:43N 34°41' E 134°47'411.1
2017-Sep-20 05:22N 34°39' E 134°51'3 9.4
2017-Sep-20 05:00N 34°37' E 134°54'510.1
2017-Sep-20 04:29N 34°37' E 135°01'4 8.4
2017-Sep-20 04:00N 34°36' E 135°05'611.8
2017-Sep-20 03:30N 34°36' E 135°12'611.9
2017-Sep-20 03:00N 34°37' E 135°20'611.2
2017-Sep-20 02:30N 34°39' E 135°26'1 1.1
2017-Sep-20 01:59N 34°39' E 135°27'0 0.0
2017-Sep-20 01:24N 34°39' E 135°27'0 0.0
2017-Sep-20 01:01N 34°39' E 135°27'0 0.0
2017-Sep-20 00:25N 34°39' E 135°27'0 0.0
2017-Sep-20 00:00N 34°39' E 135°27'0 0.0
2017-Sep-19 23:31N 34°39' E 135°27'0 0.0
2017-Sep-19 23:00N 34°39' E 135°27'0 0.0
2017-Sep-19 22:30N 34°39' E 135°27'0 0.0
2017-Sep-19 22:01N 34°39' E 135°27'0 0.0
2017-Sep-19 21:31N 34°39' E 135°27'0 0.0
2017-Sep-19 21:01N 34°39' E 135°27'0 0.0
2017-Sep-19 20:30N 34°39' E 135°27'0 0.0
2017-Sep-19 20:01N 34°39' E 135°27'0 0.0
2017-Sep-19 19:31N 34°39' E 135°27'0 0.0
2017-Sep-19 19:01N 34°39' E 135°27'0 0.0
2017-Sep-19 18:30N 34°39' E 135°27'0 0.0
2017-Sep-19 18:01N 34°39' E 135°27'0 0.0
2017-Sep-19 17:30N 34°39' E 135°27'0 0.0
2017-Sep-19 17:00N 34°39' E 135°27'0 0.0
2017-Sep-19 16:30N 34°39' E 135°27'0 0.0
2017-Sep-19 16:00N 34°39' E 135°27'0 0.0
2017-Sep-19 15:24N 34°39' E 135°27'0 0.0
2017-Sep-19 15:00N 34°39' E 135°27'0 0.0
2017-Sep-19 14:30N 34°39' E 135°27'0 0.0
2017-Sep-19 13:54N 34°39' E 135°27'0 0.0
2017-Sep-19 13:30N 34°39' E 135°27'0 0.0
2017-Sep-19 13:01N 34°39' E 135°27'0 0.0
2017-Sep-19 12:31N 34°39' E 135°27'0 0.0
2017-Sep-19 12:01N 34°39' E 135°27'0 0.0
2017-Sep-19 11:31N 34°39' E 135°27'0 0.0
2017-Sep-19 10:55N 34°39' E 135°27'0 0.0
2017-Sep-19 10:31N 34°39' E 135°27'0 0.0
2017-Sep-19 09:31N 34°39' E 135°27'0 0.0
2017-Sep-19 09:00N 34°39' E 135°27'0 0.0
2017-Sep-19 08:30N 34°39' E 135°27'0 0.0
2017-Sep-19 07:54N 34°39' E 135°27'0 0.0
2017-Sep-19 07:25N 34°39' E 135°27'0 0.0
2017-Sep-19 07:00N 34°39' E 135°27'0 0.0
2017-Sep-19 06:31N 34°39' E 135°27'0 0.0
2017-Sep-19 06:00N 34°39' E 135°27'0 0.0
2017-Sep-19 05:30N 34°39' E 135°27'2 3.5
2017-Sep-19 05:00N 34°39' E 135°24'4 9.1
2017-Sep-19 04:30N 34°37' E 135°19'1 1.6
2017-Sep-19 04:00N 34°38' E 135°19'0 0.0
2017-Sep-19 03:24N 34°38' E 135°19'0 0.1
2017-Sep-19 03:00N 34°38' E 135°19'0 0.0
2017-Sep-19 02:30N 34°38' E 135°19'0 0.0
2017-Sep-19 01:54N 34°38' E 135°19'0 0.0
2017-Sep-19 01:30N 34°38' E 135°19'0 0.0
2017-Sep-19 01:00N 34°38' E 135°19'0 0.0
2017-Sep-19 00:12N 34°38' E 135°19'0 0.0
2017-Sep-19 00:00N 34°38' E 135°19'3 5.4
2017-Sep-18 23:30N 34°36' E 135°17'611.3
2017-Sep-18 23:00N 34°35' E 135°10'611.8
2017-Sep-18 22:30N 34°36' E 135°03'4 8.5
2017-Sep-18 22:00N 34°37' E 134°58'610.9
2017-Sep-18 21:26N 34°34' E 134°52'  
2017-Sep-16 06:05N 34°33' E 134°46'415.2
2017-Sep-16 05:49N 34°35' E 134°51'515.2
2017-Sep-16 05:31N 34°37' E 134°56'612.7
2017-Sep-16 05:01N 34°36' E 135°04'713.3
2017-Sep-16 04:30N 34°36' E 135°12'713.8
2017-Sep-16 04:00N 34°37' E 135°20'611.2
2017-Sep-16 03:30N 34°39' E 135°26'0 0.3
2017-Sep-16 03:00N 34°39' E 135°27'0 0.0
2017-Sep-16 02:19N 34°39' E 135°27'0 0.0
2017-Sep-16 01:49N 34°39' E 135°27'0 0.0
2017-Sep-16 01:25N 34°39' E 135°27'0 0.0
2017-Sep-16 00:55N 34°39' E 135°27'0 0.0
2017-Sep-16 00:25N 34°39' E 135°27'0 0.0
2017-Sep-15 23:55N 34°39' E 135°27'0 0.0
2017-Sep-15 23:25N 34°39' E 135°27'0 0.0
2017-Sep-15 22:55N 34°39' E 135°27'0 0.0
2017-Sep-15 22:28N 34°39' E 135°27'1 2.4
2017-Sep-15 22:00N 34°39' E 135°25'4 7.1
2017-Sep-15 21:30N 34°37' E 135°22'0 0.1
2017-Sep-15 20:56N 34°37' E 135°22'0 0.0
2017-Sep-15 20:26N 34°37' E 135°22'0 0.0
2017-Sep-15 19:56N 34°37' E 135°22'0 0.0
2017-Sep-15 19:26N 34°37' E 135°22'0 0.0
2017-Sep-15 18:56N 34°37' E 135°22'0 0.0
2017-Sep-15 18:26N 34°37' E 135°22'0 0.0
2017-Sep-15 17:56N 34°37' E 135°22'0 0.0
2017-Sep-15 17:20N 34°37' E 135°22'0 0.0
2017-Sep-15 16:56N 34°37' E 135°22'0 0.0
2017-Sep-15 16:20N 34°37' E 135°22'0 0.0
2017-Sep-15 15:56N 34°37' E 135°22'0 0.8
2017-Sep-15 15:31N 34°36' E 135°21'611.3
2017-Sep-15 15:01N 34°35' E 135°15'612.8
2017-Sep-15 14:31N 34°35' E 135°07'714.1
2017-Sep-15 14:00N 34°37' E 134°59'  
2017-Sep-12 04:22N 34°41' E 134°46'713.2
2017-Sep-12 03:50N 34°37' E 134°54'514.8
2017-Sep-12 03:29N 34°38' E 135°00'613.3
2017-Sep-12 03:00N 34°36' E 135°08'612.3
2017-Sep-12 02:30N 34°36' E 135°15'612.0
2017-Sep-12 02:00N 34°38' E 135°22'4 7.5
2017-Sep-12 01:30N 34°39' E 135°27'0 0.2
2017-Sep-12 01:00N 34°39' E 135°27'0 0.0
2017-Sep-12 00:22N 34°39' E 135°27'0 0.0
2017-Sep-11 23:58N 34°39' E 135°27'0 0.0
2017-Sep-11 23:28N 34°39' E 135°27'0 0.0
2017-Sep-11 22:58N 34°39' E 135°27'0 0.0
2017-Sep-11 22:28N 34°39' E 135°27'0 0.0
2017-Sep-11 21:58N 34°39' E 135°27'0 0.0
2017-Sep-11 21:28N 34°39' E 135°27'0 0.0
2017-Sep-11 20:52N 34°39' E 135°27'0 0.0
2017-Sep-11 20:28N 34°39' E 135°27'0 0.0
2017-Sep-11 19:58N 34°39' E 135°27'0 0.0
2017-Sep-11 19:28N 34°39' E 135°27'0 0.0
2017-Sep-11 18:58N 34°39' E 135°27'0 0.0
2017-Sep-11 18:28N 34°39' E 135°27'0 0.0
2017-Sep-11 17:40N 34°39' E 135°27'0 0.0
2017-Sep-11 17:28N 34°39' E 135°27'0 0.0
2017-Sep-11 16:46N 34°39' E 135°27'0 0.0
2017-Sep-11 16:22N 34°39' E 135°27'0 0.0
2017-Sep-11 15:58N 34°39' E 135°27'0 0.0
2017-Sep-11 15:28N 34°39' E 135°27'0 0.0
2017-Sep-11 14:58N 34°39' E 135°27'0 0.0
2017-Sep-11 14:28N 34°39' E 135°27'0 0.0
2017-Sep-11 13:58N 34°39' E 135°27'0 0.0
2017-Sep-11 13:22N 34°39' E 135°27'0 0.0
2017-Sep-11 12:58N 34°39' E 135°27'0 0.0
2017-Sep-11 12:28N 34°39' E 135°27'0 0.0
2017-Sep-11 11:58N 34°39' E 135°27'0 0.0
2017-Sep-11 11:16N 34°39' E 135°27'0 0.0
2017-Sep-11 11:00N 34°39' E 135°27'1 2.2
2017-Sep-11 10:30N 34°39' E 135°25'611.2
2017-Sep-11 10:00N 34°36' E 135°19'612.3
2017-Sep-11 09:30N 34°35' E 135°12'713.6
2017-Sep-11 09:00N 34°35' E 135°04'813.8
2017-Sep-11 08:28N 34°36' E 134°55'  

Dump ship's entire track history